Time;durP1;ratioP1;P1;durP2;ratioP2;P2;SDS_P1;SDS_P2;PMS_P1;PMS_P2;Temp;Humidity;BMP_temperature;BMP_pressure;BME280_temperature;BME280_humidity;BME280_pressure;Samples;Min_cycle;Max_cycle;Signal;HPM_P1;HPM_P2
2021/03/08 00:00:31;;;;;;;8.00;4.38;;;4.70;99.90;;;;;;4995337;28;20487;-73
2021/03/08 00:02:58;;;;;;;11.93;4.70;;;4.70;99.90;;;;;;4992982;28;20026;-73
2021/03/08 00:05:24;;;;;;;8.30;4.35;;;4.70;99.90;;;;;;4991252;28;20037;-72
2021/03/08 00:07:50;;;;;;;10.60;4.57;;;4.60;99.90;;;;;;4991893;28;20129;-73
2021/03/08 00:10:18;;;;;;;8.95;4.85;;;4.70;99.90;;;;;;4998675;28;20084;-73
2021/03/08 00:12:44;;;;;;;7.13;4.40;;;4.70;99.90;;;;;;5000210;28;20030;-73
2021/03/08 00:15:11;;;;;;;7.32;4.40;;;4.70;99.90;;;;;;4992672;28;20113;-73
2021/03/08 00:17:36;;;;;;;7.22;4.22;;;4.60;99.90;;;;;;4996517;28;20042;-73
2021/03/08 00:20:08;;;;;;;9.52;4.93;;;4.70;99.90;;;;;;4991024;28;20030;-72
2021/03/08 00:22:34;;;;;;;10.75;5.13;;;4.70;99.90;;;;;;4996529;28;20042;-73
2021/03/08 00:24:59;;;;;;;9.80;4.70;;;4.70;99.90;;;;;;4990614;28;20041;-73
2021/03/08 00:27:25;;;;;;;15.80;4.68;;;4.70;99.90;;;;;;4991329;28;20040;-73
2021/03/08 00:29:50;;;;;;;11.00;4.95;;;4.70;99.90;;;;;;4990708;28;20477;-73
2021/03/08 00:32:16;;;;;;;9.60;4.65;;;4.70;99.90;;;;;;4990553;28;20117;-71
2021/03/08 00:34:41;;;;;;;11.23;4.97;;;4.70;99.90;;;;;;4985301;28;20469;-71
2021/03/08 00:37:07;;;;;;;11.57;4.78;;;4.70;99.90;;;;;;4996626;28;20048;-71
2021/03/08 00:39:33;;;;;;;9.10;4.30;;;4.70;99.90;;;;;;4998187;28;20029;-73
2021/03/08 00:41:58;;;;;;;8.95;4.60;;;4.60;99.90;;;;;;4995148;28;20541;-71
2021/03/08 00:44:24;;;;;;;10.73;4.78;;;4.70;99.90;;;;;;5000704;28;20038;-72
2021/03/08 00:46:50;;;;;;;10.73;4.30;;;4.80;99.90;;;;;;4992987;28;20034;-72
2021/03/08 00:49:15;;;;;;;7.38;4.50;;;4.70;99.90;;;;;;4991337;28;20400;-72
2021/03/08 00:51:41;;;;;;;11.80;4.38;;;4.70;99.90;;;;;;4991419;28;20034;-72
2021/03/08 00:54:06;;;;;;;8.80;4.38;;;4.60;99.90;;;;;;5000995;28;20092;-74
2021/03/08 00:56:32;;;;;;;12.13;4.75;;;4.60;99.90;;;;;;4999649;28;20495;-73
2021/03/08 00:58:58;;;;;;;11.32;5.18;;;4.50;99.90;;;;;;4991293;28;20073;-73
2021/03/08 01:01:24;;;;;;;12.55;4.85;;;4.50;99.90;;;;;;4986295;28;20117;-72
2021/03/08 01:03:49;;;;;;;8.25;4.20;;;4.50;99.90;;;;;;4989289;28;20578;-73
2021/03/08 01:06:15;;;;;;;11.98;4.78;;;4.60;99.90;;;;;;4994982;28;20084;-72
2021/03/08 01:08:40;;;;;;;8.98;4.30;;;4.60;99.90;;;;;;4992827;28;20053;-73
2021/03/08 01:11:06;;;;;;;8.85;4.25;;;4.60;99.90;;;;;;4989500;28;20459;-72
2021/03/08 01:13:32;;;;;;;10.63;4.22;;;4.50;99.90;;;;;;4998527;28;20036;-73
2021/03/08 01:16:08;;;;;;;7.80;4.18;;;4.50;99.90;;;;;;5001930;28;20120;-72
2021/03/08 01:18:34;;;;;;;11.18;4.55;;;4.50;99.90;;;;;;4995706;28;20026;-72
2021/03/08 01:20:59;;;;;;;9.45;4.30;;;4.50;99.90;;;;;;4998423;28;20040;-72
2021/03/08 01:23:25;;;;;;;11.00;4.15;;;4.50;99.90;;;;;;4999039;28;20106;-72
2021/03/08 01:25:50;;;;;;;7.63;4.07;;;4.40;99.90;;;;;;4999113;28;20093;-72
2021/03/08 01:28:16;;;;;;;8.43;4.38;;;4.50;99.90;;;;;;4993259;28;20061;-73
2021/03/08 01:30:44;;;;;;;10.98;4.70;;;4.40;99.90;;;;;;4995932;28;20029;-73
2021/03/08 01:33:09;;;;;;;7.05;4.18;;;4.40;99.90;;;;;;4992753;28;20030;-72
2021/03/08 01:35:36;;;;;;;8.63;3.95;;;4.40;99.90;;;;;;4990426;28;20393;-72
2021/03/08 01:38:03;;;;;;;10.27;4.30;;;4.40;99.90;;;;;;4998456;28;20039;-72
2021/03/08 01:40:30;;;;;;;9.63;4.65;;;4.40;99.90;;;;;;5003099;28;20064;-73
2021/03/08 01:42:57;;;;;;;9.40;4.13;;;4.40;99.90;;;;;;4994079;28;20444;-72
2021/03/08 01:45:23;;;;;;;6.68;3.95;;;4.30;99.90;;;;;;4991867;28;20100;-72
2021/03/08 01:47:50;;;;;;;6.60;4.07;;;4.40;99.90;;;;;;4991400;28;20109;-72
2021/03/08 01:50:35;;;;;;;6.90;3.63;;;4.30;99.90;;;;;;4988532;28;20056;-72
2021/03/08 01:53:03;;;;;;;9.18;4.28;;;4.40;99.90;;;;;;4989352;28;20051;-72
2021/03/08 01:55:29;;;;;;;7.00;3.55;;;4.30;99.90;;;;;;4990459;28;20369;-72
2021/03/08 01:57:55;;;;;;;9.63;3.80;;;4.30;99.90;;;;;;4992248;28;20038;-72
2021/03/08 02:00:26;;;;;;;8.15;3.60;;;4.20;99.90;;;;;;4999193;28;20065;-72
2021/03/08 02:02:52;;;;;;;7.65;3.70;;;4.10;99.90;;;;;;4999687;28;20088;-72
2021/03/08 02:05:21;;;;;;;6.68;3.85;;;4.10;99.90;;;;;;4997640;28;20041;-73
2021/03/08 02:07:47;;;;;;;9.63;4.00;;;4.10;99.90;;;;;;4992991;28;20120;-72
2021/03/08 02:10:14;;;;;;;7.88;3.67;;;4.00;99.90;;;;;;4998246;28;20109;-72
2021/03/08 02:12:48;;;;;;;8.30;3.10;;;3.90;99.90;;;;;;4987117;28;20658;-73
2021/03/08 02:15:35;;;;;;;5.25;2.92;;;3.80;99.90;;;;;;4990012;28;20113;-72
2021/03/08 02:18:34;;;;;;;6.78;2.90;;;3.60;99.90;;;;;;4994390;28;20027;-72
2021/03/08 02:21:38;;;;;;;7.88;2.92;;;3.60;99.90;;;;;;4979207;28;20054;-72
2021/03/08 02:24:22;;;;;;;5.28;2.75;;;3.50;99.90;;;;;;4995911;28;20120;-72
2021/03/08 02:26:51;;;;;;;7.05;3.03;;;3.40;99.90;;;;;;4990180;28;20034;-73
2021/03/08 02:29:33;;;;;;;3.97;2.63;;;3.40;99.90;;;;;;4988632;28;20053;-72
2021/03/08 02:32:02;;;;;;;6.82;3.08;;;3.40;99.90;;;;;;4989122;28;20045;-72
2021/03/08 02:34:31;;;;;;;4.22;2.55;;;3.30;99.90;;;;;;4992411;28;20042;-72
2021/03/08 02:37:02;;;;;;;5.05;2.17;;;3.10;99.90;;;;;;4987680;28;20018;-72
2021/03/08 02:39:34;;;;;;;3.85;2.30;;;3.20;99.90;;;;;;4992124;28;20508;-72
2021/03/08 02:42:02;;;;;;;9.75;2.33;;;3.20;99.90;;;;;;4985618;28;20542;-72
2021/03/08 02:44:34;;;;;;;4.03;2.20;;;3.20;99.90;;;;;;5001252;28;20033;-72
2021/03/08 02:47:00;;;;;;;5.80;2.17;;;3.00;99.90;;;;;;4987506;28;20054;-72
2021/03/08 02:49:29;;;;;;;8.57;2.63;;;2.90;99.90;;;;;;4989796;28;20105;-72
2021/03/08 02:51:59;;;;;;;6.43;2.53;;;2.80;99.90;;;;;;4989163;28;20023;-72
2021/03/08 02:54:27;;;;;;;5.93;2.40;;;2.80;99.90;;;;;;5001196;28;20101;-72
2021/03/08 02:56:57;;;;;;;4.80;2.13;;;2.80;99.90;;;;;;4992282;28;20027;-72
2021/03/08 02:59:25;;;;;;;4.22;2.55;;;2.80;99.90;;;;;;4996844;28;20072;-72
2021/03/08 03:01:53;;;;;;;3.25;2.33;;;2.80;99.90;;;;;;5003745;28;20034;-72
2021/03/08 03:04:21;;;;;;;5.97;2.38;;;2.70;99.90;;;;;;4991283;28;20030;-72
2021/03/08 03:06:48;;;;;;;3.80;2.22;;;2.70;99.90;;;;;;4991965;28;20118;-72
2021/03/08 03:09:15;;;;;;;4.22;2.40;;;2.60;99.90;;;;;;4990861;28;20093;-72
2021/03/08 03:11:45;;;;;;;3.53;2.33;;;2.60;99.90;;;;;;4987727;28;20033;-72
2021/03/08 03:14:12;;;;;;;9.70;2.67;;;2.50;99.90;;;;;;4995128;28;20026;-72
2021/03/08 03:16:40;;;;;;;4.03;2.00;;;2.60;99.90;;;;;;4991397;28;20022;-72
2021/03/08 03:19:06;;;;;;;4.57;2.13;;;2.50;99.90;;;;;;4999987;28;20025;-72
2021/03/08 03:21:33;;;;;;;9.50;2.50;;;2.40;99.90;;;;;;4988379;28;20040;-72
2021/03/08 03:24:00;;;;;;;5.55;2.55;;;2.30;99.90;;;;;;4989250;28;20108;-72
2021/03/08 03:26:29;;;;;;;3.20;2.00;;;2.20;99.90;;;;;;4987960;28;20034;-72
2021/03/08 03:28:56;;;;;;;2.95;1.85;;;2.20;99.90;;;;;;4995133;28;20475;-72
2021/03/08 03:31:23;;;;;;;7.38;2.25;;;2.00;99.90;;;;;;4995811;28;20069;-72
2021/03/08 03:33:50;;;;;;;4.32;2.25;;;2.00;99.90;;;;;;4991670;28;20093;-72
2021/03/08 03:36:16;;;;;;;9.00;2.17;;;2.20;99.90;;;;;;4992537;28;20029;-72
2021/03/08 03:38:41;;;;;;;5.45;2.30;;;2.30;99.90;;;;;;4988523;28;20098;-72
2021/03/08 03:41:07;;;;;;;12.48;2.67;;;2.30;99.90;;;;;;4987226;28;20118;-72
2021/03/08 03:43:33;;;;;;;5.15;1.88;;;2.30;99.90;;;;;;4994106;28;20026;-72
2021/03/08 03:46:02;;;;;;;4.82;2.00;;;2.30;99.90;;;;;;4989359;28;20118;-72
2021/03/08 03:48:28;;;;;;;6.20;2.20;;;2.30;99.90;;;;;;4987249;28;20052;-72
2021/03/08 03:50:53;;;;;;;3.80;1.98;;;2.20;99.90;;;;;;4992248;28;20473;-72
2021/03/08 03:53:19;;;;;;;5.75;2.17;;;2.20;99.90;;;;;;4993392;28;20206;-72
2021/03/08 03:55:45;;;;;;;5.38;2.25;;;2.10;99.90;;;;;;4993065;28;20114;-72
2021/03/08 03:58:24;;;;;;;6.60;2.88;;;2.10;99.90;;;;;;4991061;28;20018;-72
2021/03/08 04:01:35;;;;;;;5.50;2.10;;;2.00;99.90;;;;;;4995537;28;20045;-72
2021/03/08 04:04:13;;;;;;;4.78;1.83;;;1.90;99.90;;;;;;4946512;28;20027;-72
2021/03/08 04:06:43;;;;;;;7.85;2.22;;;1.70;99.90;;;;;;4982668;28;20037;-72
2021/03/08 04:09:12;;;;;;;7.47;1.80;;;1.70;99.90;;;;;;4991764;28;20392;-72
2021/03/08 04:11:39;;;;;;;4.82;2.20;;;1.70;99.90;;;;;;4987245;28;20027;-72
2021/03/08 04:14:06;;;;;;;3.97;2.33;;;1.70;99.90;;;;;;4996466;28;20109;-72
2021/03/08 04:16:35;;;;;;;4.93;2.05;;;1.70;99.90;;;;;;4987519;28;20031;-72
2021/03/08 04:19:02;;;;;;;5.63;2.35;;;1.70;99.90;;;;;;4988752;28;20032;-72
2021/03/08 04:21:34;;;;;;;5.82;2.33;;;1.60;99.90;;;;;;4995927;28;20161;-72
2021/03/08 04:24:01;;;;;;;7.00;2.58;;;1.60;99.90;;;;;;4992531;28;20092;-72
2021/03/08 04:26:27;;;;;;;4.05;2.10;;;1.70;99.90;;;;;;4988335;28;20030;-72
2021/03/08 04:28:53;;;;;;;2.33;1.55;;;1.60;99.90;;;;;;4984640;28;20113;-72
2021/03/08 04:31:19;;;;;;;8.50;2.22;;;1.60;99.90;;;;;;4994127;28;20121;-71
2021/03/08 04:33:46;;;;;;;7.05;2.22;;;1.60;99.90;;;;;;4987451;28;20022;-72
2021/03/08 04:36:12;;;;;;;5.43;2.25;;;1.40;99.90;;;;;;4992304;28;20030;-72
2021/03/08 04:38:41;;;;;;;5.85;2.33;;;1.40;99.90;;;;;;4990277;28;20105;-72
2021/03/08 04:41:07;;;;;;;3.83;2.20;;;1.30;99.90;;;;;;4991102;28;20035;-72
2021/03/08 04:43:33;;;;;;;4.10;1.90;;;1.40;99.90;;;;;;4991005;28;20057;-72
2021/03/08 04:45:59;;;;;;;7.60;2.38;;;1.40;99.90;;;;;;4994775;28;20034;-72
2021/03/08 04:48:27;;;;;;;9.27;2.45;;;1.40;99.90;;;;;;4994513;28;20026;-72
2021/03/08 04:50:53;;;;;;;4.70;2.30;;;1.30;99.90;;;;;;4981104;28;20414;-71
2021/03/08 04:53:19;;;;;;;4.57;2.17;;;1.40;99.90;;;;;;4994665;28;20125;-72
2021/03/08 04:55:47;;;;;;;5.97;2.17;;;1.40;99.90;;;;;;4994529;28;20064;-72
2021/03/08 04:58:12;;;;;;;7.20;2.30;;;1.30;99.90;;;;;;4990539;28;20035;-72
2021/03/08 05:00:38;;;;;;;4.20;2.28;;;1.30;99.90;;;;;;4993445;28;20018;-72
2021/03/08 05:03:04;;;;;;;2.58;1.90;;;1.30;99.90;;;;;;4988772;28;20038;-72
2021/03/08 05:05:30;;;;;;;5.40;2.28;;;1.30;99.90;;;;;;4997991;28;20034;-72
2021/03/08 05:08:00;;;;;;;4.82;2.25;;;1.20;99.90;;;;;;4996628;28;20029;-72
2021/03/08 05:10:27;;;;;;;4.53;2.58;;;1.10;99.90;;;;;;4995314;28;20031;-72
2021/03/08 05:12:54;;;;;;;8.82;2.20;;;1.10;99.90;;;;;;4998127;28;20503;-72
2021/03/08 05:15:22;;;;;;;4.70;2.22;;;1.10;99.90;;;;;;4988279;28;20026;-72
2021/03/08 05:17:53;;;;;;;3.40;2.00;;;1.20;99.90;;;;;;4986290;28;20018;-72
2021/03/08 05:20:19;;;;;;;2.97;2.20;;;1.10;99.90;;;;;;4986173;28;20022;-72
2021/03/08 05:22:46;;;;;;;3.63;1.80;;;1.00;99.90;;;;;;5001063;28;20084;-71
2021/03/08 05:25:12;;;;;;;3.95;2.13;;;1.00;99.90;;;;;;4998718;28;20035;-71
2021/03/08 05:27:39;;;;;;;3.88;2.10;;;0.90;99.90;;;;;;4992575;28;20117;-72
2021/03/08 05:30:06;;;;;;;4.38;2.00;;;0.90;99.90;;;;;;5004638;28;20037;-72
2021/03/08 05:32:36;;;;;;;6.10;2.00;;;0.90;99.90;;;;;;4994619;28;20484;-72
2021/03/08 05:35:03;;;;;;;6.03;2.20;;;0.90;99.90;;;;;;4978752;28;20029;-71
2021/03/08 05:37:29;;;;;;;12.02;2.65;;;0.90;99.90;;;;;;4991111;28;20030;-72
2021/03/08 05:39:59;;;;;;;11.00;2.42;;;0.80;99.90;;;;;;4995692;28;20026;-72
2021/03/08 05:42:30;;;;;;;7.90;2.40;;;0.80;99.90;;;;;;4992239;28;20030;-72
2021/03/08 05:45:00;;;;;;;;;;;0.80;99.90;;;;;;4992525;28;20023;-72
2021/03/08 05:48:04;;;;;;;6.22;2.55;;;0.70;99.90;;;;;;4995624;28;19940;-72
2021/03/08 05:51:04;;;;;;;6.63;2.80;;;0.80;99.90;;;;;;4985162;28;20078;-72
2021/03/08 05:54:02;;;;;;;6.85;4.15;;;0.80;99.90;;;;;;4986862;28;20053;-72
2021/03/08 05:57:00;;;;;;;6.95;3.25;;;0.70;99.90;;;;;;4991662;28;20031;-72
2021/03/08 05:59:42;;;;;;;7.85;3.63;;;0.70;99.90;;;;;;4989244;28;20031;-72
2021/03/08 06:02:33;;;;;;;6.47;2.45;;;0.70;99.90;;;;;;4991929;28;20038;-73
2021/03/08 06:05:05;;;;;;;7.35;3.90;;;0.70;99.90;;;;;;4993575;28;20027;-72
2021/03/08 06:07:55;;;;;;;7.13;2.90;;;0.80;99.90;;;;;;4990841;28;20109;-71
2021/03/08 06:10:23;;;;;;;5.43;2.92;;;0.70;99.90;;;;;;4987767;28;20030;-72
2021/03/08 06:12:49;;;;;;;10.20;3.55;;;0.60;99.90;;;;;;4986748;28;20030;-72
2021/03/08 06:15:20;;;;;;;8.90;4.25;;;0.60;99.90;;;;;;4990950;28;20539;-72
2021/03/08 06:17:47;;;;;;;8.52;4.78;;;0.70;99.90;;;;;;4990143;28;20049;-72
2021/03/08 06:20:13;;;;;;;7.85;4.43;;;0.70;99.90;;;;;;4990356;28;20037;-72
2021/03/08 06:22:39;;;;;;;8.63;4.30;;;0.70;99.90;;;;;;4990812;28;20149;-72
2021/03/08 06:25:07;;;;;;;8.90;4.63;;;0.70;99.90;;;;;;4996447;28;20169;-72
2021/03/08 06:27:33;;;;;;;15.50;7.53;;;0.80;99.90;;;;;;4991594;28;20516;-72
2021/03/08 06:30:02;;;;;;;29.23;10.85;;;0.80;99.90;;;;;;4990620;28;20037;-72
2021/03/08 06:32:28;;;;;;;55.38;19.45;;;0.80;99.90;;;;;;4990527;28;20034;-72
2021/03/08 06:34:54;;;;;;;54.97;19.92;;;0.80;99.90;;;;;;4989680;28;20022;-72
2021/03/08 06:37:20;;;;;;;49.88;18.40;;;0.70;99.90;;;;;;4989027;28;20034;-71
2021/03/08 06:39:47;;;;;;;16.88;6.57;;;0.70;99.90;;;;;;4989975;28;20110;-72
2021/03/08 06:42:17;;;;;;;8.90;3.58;;;0.70;99.90;;;;;;4993725;28;20428;-72
2021/03/08 06:44:47;;;;;;;12.95;3.42;;;0.70;99.90;;;;;;4991057;28;20030;-72
2021/03/08 06:47:13;;;;;;;10.88;5.07;;;0.80;99.90;;;;;;4991700;28;20025;-72
2021/03/08 06:49:38;;;;;;;10.80;3.75;;;0.80;99.90;;;;;;4984837;28;20026;-72
2021/03/08 06:52:08;;;;;;;6.18;2.58;;;0.80;99.90;;;;;;4986313;28;20503;-72
2021/03/08 06:54:36;;;;;;;4.05;2.33;;;0.90;99.90;;;;;;4992512;28;20022;-72
2021/03/08 06:57:21;;;;;;;5.32;2.50;;;0.90;99.90;;;;;;4989086;28;20026;-72
2021/03/08 07:00:06;;;;;;;4.13;2.03;;;1.00;99.90;;;;;;4992352;28;20015;-72
2021/03/08 07:02:42;;;;;;;6.28;1.73;;;1.20;99.90;;;;;;4993182;28;20131;-72
2021/03/08 07:05:10;;;;;;;3.22;1.92;;;1.30;99.90;;;;;;4994525;28;20030;-71
2021/03/08 07:07:52;;;;;;;8.68;2.80;;;1.30;99.90;;;;;;4988090;28;20488;-72
2021/03/08 07:10:29;;;;;;;5.82;2.20;;;1.30;99.90;;;;;;4987228;28;20076;-72
2021/03/08 07:12:54;;;;;;;5.45;2.38;;;1.30;99.90;;;;;;4992974;28;20033;-71
2021/03/08 07:15:20;;;;;;;5.03;1.85;;;1.40;99.90;;;;;;4989797;28;20034;-72
2021/03/08 07:17:45;;;;;;;4.00;2.08;;;1.40;99.90;;;;;;4982668;28;20022;-72
2021/03/08 07:20:13;;;;;;;5.30;2.22;;;1.40;99.90;;;;;;4999008;28;20026;-72
2021/03/08 07:22:43;;;;;;;3.88;1.77;;;1.60;99.90;;;;;;4990366;28;20030;-72
2021/03/08 07:25:23;;;;;;;3.97;2.08;;;1.50;99.90;;;;;;4988695;28;20037;-72
2021/03/08 07:28:04;;;;;;;5.47;3.53;;;1.50;99.90;;;;;;4987948;28;20512;-72
2021/03/08 07:30:31;;;;;;;4.07;2.40;;;1.50;99.90;;;;;;4988895;28;20320;-72
2021/03/08 07:33:14;;;;;;;2.75;1.35;;;1.50;99.90;;;;;;4983092;28;20481;-71
2021/03/08 07:35:45;;;;;;;5.35;1.98;;;1.50;99.90;;;;;;4986140;28;20050;-72
2021/03/08 07:38:27;;;;;;;4.85;2.20;;;1.60;99.90;;;;;;4982384;28;20042;-72
2021/03/08 07:41:03;;;;;;;3.80;1.52;;;1.80;99.90;;;;;;4988937;28;20567;-73
2021/03/08 07:43:29;;;;;;;6.47;2.72;;;1.80;99.90;;;;;;4988444;28;20387;-73
2021/03/08 07:45:54;;;;;;;7.63;3.55;;;1.90;99.90;;;;;;4987739;28;20030;-72
2021/03/08 07:48:21;;;;;;;4.32;2.40;;;1.90;99.90;;;;;;4984509;28;20037;-71
2021/03/08 07:50:51;;;;;;;2.38;1.58;;;1.90;99.90;;;;;;4986847;28;20037;-71
2021/03/08 07:53:30;;;;;;;4.30;1.92;;;2.00;99.90;;;;;;4985515;28;20054;-72
2021/03/08 07:55:57;;;;;;;8.15;1.65;;;2.10;99.90;;;;;;4989209;28;20581;-72
2021/03/08 07:58:25;;;;;;;3.53;1.70;;;2.10;99.90;;;;;;4989866;28;20034;-73
2021/03/08 08:00:51;;;;;;;7.38;2.60;;;2.20;99.90;;;;;;4990922;28;20481;-72
2021/03/08 08:03:16;;;;;;;4.30;1.80;;;2.20;99.90;;;;;;4984143;28;20513;-72
2021/03/08 08:05:43;;;;;;;9.02;3.38;;;2.30;99.90;;;;;;4985990;28;20022;-73
2021/03/08 08:08:09;;;;;;;6.57;2.83;;;2.30;99.90;;;;;;4996582;28;20023;-74
2021/03/08 08:10:36;;;;;;;2.78;1.48;;;2.40;99.90;;;;;;4989206;28;20037;-72
2021/03/08 08:13:02;;;;;;;4.75;1.70;;;2.40;99.90;;;;;;4989017;28;20062;-72
2021/03/08 08:15:30;;;;;;;7.18;1.58;;;2.50;99.90;;;;;;4992320;28;20050;-73
2021/03/08 08:17:58;;;;;;;4.63;1.95;;;2.60;99.90;;;;;;4990317;28;20030;-73
2021/03/08 08:20:28;;;;;;;3.22;1.52;;;2.70;99.90;;;;;;4990953;28;20056;-73
2021/03/08 08:22:57;;;;;;;5.80;1.63;;;2.70;99.90;;;;;;5001131;28;20029;-73
2021/03/08 08:25:24;;;;;;;2.08;1.45;;;2.80;99.90;;;;;;4998729;28;20038;-72
2021/03/08 08:27:49;;;;;;;3.38;1.50;;;3.00;99.90;;;;;;4989523;28;20031;-73
2021/03/08 08:30:17;;;;;;;3.17;1.50;;;3.00;99.90;;;;;;4991788;28;20034;-74
2021/03/08 08:32:51;;;;;;;6.15;1.50;;;3.10;99.90;;;;;;4991613;28;20038;-73
2021/03/08 08:35:19;;;;;;;2.30;1.23;;;3.20;99.90;;;;;;5001363;28;20755;-71
2021/03/08 08:38:07;;;;;;;1.98;1.05;;;3.20;99.90;;;;;;4998020;28;20499;-72
2021/03/08 08:40:39;;;;;;;3.78;1.30;;;3.30;99.90;;;;;;4995666;28;20154;-72
2021/03/08 08:43:16;;;;;;;4.22;1.00;;;3.50;99.90;;;;;;4985581;28;20066;-79
2021/03/08 08:45:43;;;;;;;2.88;1.20;;;3.50;99.90;;;;;;4989872;28;20508;-73
2021/03/08 08:48:11;;;;;;;2.97;1.15;;;3.60;99.90;;;;;;4990633;28;20036;-72
2021/03/08 08:50:51;;;;;;;4.05;1.17;;;3.60;99.90;;;;;;4991157;28;20041;-72
2021/03/08 08:53:35;;;;;;;3.50;0.95;;;3.70;99.90;;;;;;4984922;28;20058;-71
2021/03/08 08:56:01;;;;;;;2.13;0.98;;;3.80;98.70;;;;;;4996902;28;20116;-72
2021/03/08 08:58:42;;;;;;;1.48;0.90;;;3.90;97.30;;;;;;5003766;28;20126;-72
2021/03/08 09:01:07;;;;;;;4.28;0.80;;;3.90;97.00;;;;;;4990409;28;20026;-73
2021/03/08 09:03:53;;;;;;;2.38;0.77;;;3.90;96.00;;;;;;4990441;28;20744;-71
2021/03/08 09:06:44;;;;;;;1.05;0.80;;;4.00;95.30;;;;;;4999904;28;20031;-72
2021/03/08 09:09:13;;;;;;;1.80;0.85;;;4.10;94.50;;;;;;4989647;28;20141;-72
2021/03/08 09:11:56;;;;;;;2.08;0.68;;;4.20;91.70;;;;;;4993587;28;20476;-72
2021/03/08 09:14:27;;;;;;;1.52;0.57;;;4.30;91.10;;;;;;4990294;28;20034;-70
2021/03/08 09:17:11;;;;;;;;;;;4.40;88.90;;;;;;4990663;28;20018;-70
2021/03/08 09:19:38;;;;;;;0.73;0.43;;;4.50;88.10;;;;;;4991769;28;19913;-72
2021/03/08 09:22:25;;;;;;;1.45;0.60;;;4.60;84.20;;;;;;4989430;28;20030;-72
2021/03/08 09:24:55;;;;;;;0.88;0.52;;;4.70;86.80;;;;;;4995891;28;20060;-73
2021/03/08 09:27:21;;;;;;;2.53;0.75;;;4.70;85.10;;;;;;5003529;28;20041;-73
2021/03/08 09:29:47;;;;;;;2.53;1.00;;;4.80;84.30;;;;;;4993833;28;20037;-72
2021/03/08 09:32:12;;;;;;;1.85;0.57;;;4.90;82.30;;;;;;4989174;28;20038;-72
2021/03/08 09:34:37;;;;;;;1.63;0.65;;;4.90;78.00;;;;;;4992638;28;20796;-68
2021/03/08 09:37:04;;;;;;;1.02;0.52;;;5.00;77.30;;;;;;4989087;28;20034;-70
2021/03/08 09:39:29;;;;;;;2.47;0.65;;;5.10;76.90;;;;;;4996492;28;20034;-70
2021/03/08 09:41:55;;;;;;;2.38;0.55;;;5.10;78.80;;;;;;4993011;28;20022;-70
2021/03/08 09:44:20;;;;;;;2.47;0.68;;;5.20;78.80;;;;;;4993183;28;20030;-70
2021/03/08 09:46:55;;;;;;;0.60;0.50;;;5.30;77.10;;;;;;4990013;28;20392;-69
2021/03/08 09:49:20;;;;;;;1.02;0.60;;;5.30;74.70;;;;;;4996315;28;20041;-69
2021/03/08 09:51:46;;;;;;;0.55;0.45;;;5.50;72.70;;;;;;4989844;28;20027;-70
2021/03/08 09:54:11;;;;;;;1.55;0.43;;;5.50;73.60;;;;;;4991364;28;20046;-69
2021/03/08 09:56:41;;;;;;;2.05;0.32;;;5.60;69.20;;;;;;4987892;28;20027;-70
2021/03/08 09:59:08;;;;;;;0.30;0.20;;;5.60;64.70;;;;;;4989020;28;20077;-67
2021/03/08 10:01:34;;;;;;;0.85;0.30;;;5.70;66.80;;;;;;4990503;28;20030;-69
2021/03/08 10:04:03;;;;;;;0.30;0.25;;;5.80;64.50;;;;;;4989504;28;20065;-68
2021/03/08 10:06:32;;;;;;;5.75;0.75;;;6.00;63.00;;;;;;4987774;28;20126;-68
2021/03/08 10:09:15;;;;;;;0.73;0.50;;;6.20;63.10;;;;;;4991178;28;20026;-69
2021/03/08 10:11:40;;;;;;;0.40;0.40;;;6.40;61.10;;;;;;4992502;28;20069;-69
2021/03/08 10:14:06;;;;;;;1.55;0.40;;;6.50;60.00;;;;;;4990153;28;20046;-69
2021/03/08 10:16:31;;;;;;;0.47;0.40;;;6.70;59.50;;;;;;4988060;28;20116;-69
2021/03/08 10:19:07;;;;;;;1.35;0.52;;;6.80;59.90;;;;;;4990672;28;20024;-68
2021/03/08 10:21:41;;;;;;;2.88;0.68;;;6.90;57.30;;;;;;4986059;28;20134;-69
2021/03/08 10:24:07;;;;;;;2.08;0.70;;;7.00;57.40;;;;;;4990298;28;20062;-69
2021/03/08 10:26:32;;;;;;;2.65;0.50;;;7.10;54.70;;;;;;4990696;28;20057;-70
2021/03/08 10:28:58;;;;;;;0.82;0.45;;;7.20;55.40;;;;;;4995535;28;20097;-69
2021/03/08 10:31:26;;;;;;;0.43;0.40;;;7.20;54.80;;;;;;4991496;28;20026;-69
2021/03/08 10:33:57;;;;;;;0.73;0.40;;;7.30;55.20;;;;;;4980225;28;20488;-69
2021/03/08 10:36:25;;;;;;;0.90;0.68;;;7.40;52.60;;;;;;4978613;28;20037;-69
2021/03/08 10:38:57;;;;;;;1.15;0.38;;;7.50;53.50;;;;;;4990230;28;20488;-69
2021/03/08 10:41:25;;;;;;;;;;;7.50;55.30;;;;;;4985438;28;20030;-69
2021/03/08 10:43:51;;;;;;;0.75;0.43;;;7.80;55.00;;;;;;4991909;28;19918;-69
2021/03/08 10:46:17;;;;;;;1.00;0.52;;;8.10;53.20;;;;;;4982597;28;20058;-73
2021/03/08 10:49:09;;;;;;;2.13;0.65;;;8.30;53.90;;;;;;4989564;28;20039;-68
2021/03/08 10:51:37;;;;;;;0.98;0.65;;;8.30;51.60;;;;;;4986563;28;20037;-69
2021/03/08 10:54:10;;;;;;;0.82;0.50;;;8.40;52.90;;;;;;4993287;28;20042;-70
2021/03/08 10:56:38;;;;;;;1.55;0.57;;;8.50;52.10;;;;;;4993728;28;20022;-72
2021/03/08 10:59:20;;;;;;;2.20;0.43;;;8.40;51.80;;;;;;4989289;28;20110;-71
2021/03/08 11:02:09;;;;;;;0.65;0.50;;;8.50;51.10;;;;;;4991552;28;20030;-71
2021/03/08 11:04:35;;;;;;;1.88;0.80;;;8.70;50.10;;;;;;4992640;28;20057;-72
2021/03/08 11:07:01;;;;;;;2.08;0.38;;;8.90;49.80;;;;;;4993305;28;20033;-71
2021/03/08 11:09:29;;;;;;;0.38;0.38;;;9.00;48.70;;;;;;4993982;28;20029;-70
2021/03/08 11:11:55;;;;;;;0.50;0.40;;;9.10;47.60;;;;;;4989587;28;20034;-70
2021/03/08 11:14:21;;;;;;;0.60;0.60;;;9.30;47.80;;;;;;4989127;28;20027;-72
2021/03/08 11:16:54;;;;;;;0.77;0.52;;;9.50;48.90;;;;;;4988227;28;20582;-71
2021/03/08 11:19:21;;;;;;;0.85;0.45;;;9.80;47.70;;;;;;4993881;28;20129;-72
2021/03/08 11:22:10;;;;;;;4.43;0.70;;;10.00;47.90;;;;;;4986793;28;20030;-75
2021/03/08 11:24:51;;;;;;;0.63;0.47;;;10.20;46.60;;;;;;4991249;28;20056;-71
2021/03/08 11:27:27;;;;;;;0.98;0.35;;;10.20;46.50;;;;;;4983105;28;20027;-75
2021/03/08 11:29:57;;;;;;;0.50;0.50;;;10.40;45.50;;;;;;4988902;28;20027;-74
2021/03/08 11:32:24;;;;;;;1.75;0.45;;;10.60;45.30;;;;;;4983483;28;20030;-73
2021/03/08 11:34:52;;;;;;;0.95;0.40;;;10.70;43.70;;;;;;4990164;28;20052;-74
2021/03/08 11:37:19;;;;;;;0.50;0.50;;;10.90;42.90;;;;;;4990896;28;20026;-70
2021/03/08 11:39:49;;;;;;;1.00;0.50;;;11.00;43.30;;;;;;4998630;28;20080;-72
2021/03/08 11:42:19;;;;;;;0.95;0.52;;;11.30;43.90;;;;;;4998742;28;20042;-71
2021/03/08 11:44:46;;;;;;;1.53;0.40;;;11.60;42.80;;;;;;4996431;28;20073;-73
2021/03/08 11:47:12;;;;;;;0.68;0.47;;;11.80;41.40;;;;;;4991921;28;20640;-69
2021/03/08 11:49:38;;;;;;;0.85;0.40;;;11.80;43.00;;;;;;4995487;28;20065;-69
2021/03/08 11:52:05;;;;;;;1.40;0.90;;;12.20;41.20;;;;;;4992236;28;20505;-72
2021/03/08 11:54:31;;;;;;;0.47;0.45;;;12.40;40.30;;;;;;4992483;28;20496;-71
2021/03/08 11:56:57;;;;;;;1.25;0.52;;;12.60;39.00;;;;;;4994985;28;20022;-71
2021/03/08 11:59:22;;;;;;;0.68;0.40;;;13.00;38.40;;;;;;4997274;28;20064;-71
2021/03/08 12:01:48;;;;;;;0.82;0.52;;;13.10;37.20;;;;;;4994037;28;20604;-71
2021/03/08 12:04:13;;;;;;;1.75;0.40;;;13.50;38.60;;;;;;5005726;28;20080;-70
2021/03/08 12:06:39;;;;;;;1.15;0.20;;;13.60;37.80;;;;;;4990498;28;20046;-70
2021/03/08 12:09:05;;;;;;;4.55;0.60;;;13.70;37.50;;;;;;4996290;28;20164;-71
2021/03/08 12:11:30;;;;;;;1.08;0.52;;;14.00;34.70;;;;;;4992539;28;20034;-71
2021/03/08 12:13:56;;;;;;;0.65;0.60;;;14.30;35.00;;;;;;4993353;28;20022;-71
2021/03/08 12:16:21;;;;;;;1.08;0.57;;;14.70;34.40;;;;;;4988412;28;20404;-72
2021/03/08 12:18:48;;;;;;;2.47;0.55;;;14.90;33.90;;;;;;4994781;28;20034;-71
2021/03/08 12:21:14;;;;;;;0.40;0.40;;;14.60;35.50;;;;;;4995425;28;20018;-75
2021/03/08 12:23:39;;;;;;;1.30;0.38;;;14.80;33.80;;;;;;4992093;28;20026;-76
2021/03/08 12:26:05;;;;;;;1.17;0.40;;;14.80;34.70;;;;;;4993573;28;20101;-73
2021/03/08 12:28:30;;;;;;;1.17;0.32;;;15.10;33.20;;;;;;4992545;28;20076;-74
2021/03/08 12:30:57;;;;;;;0.63;0.50;;;15.20;34.70;;;;;;4992419;28;20018;-73
2021/03/08 12:33:22;;;;;;;2.40;0.70;;;15.40;33.10;;;;;;4985598;28;20050;-74
2021/03/08 12:35:48;;;;;;;0.63;0.40;;;15.60;33.00;;;;;;4989302;28;20338;-74
2021/03/08 12:38:16;;;;;;;0.50;0.40;;;15.50;32.20;;;;;;4989838;28;20035;-74
2021/03/08 12:40:42;;;;;;;0.32;0.32;;;15.60;32.60;;;;;;4990169;28;20030;-73
2021/03/08 12:43:08;;;;;;;1.15;0.40;;;15.60;32.90;;;;;;4993653;28;20089;-74
2021/03/08 12:45:34;;;;;;;0.52;0.52;;;15.50;33.70;;;;;;4997800;28;20061;-72
2021/03/08 12:47:59;;;;;;;0.70;0.50;;;16.10;32.70;;;;;;4993727;28;20045;-73
2021/03/08 12:50:25;;;;;;;3.03;0.60;;;16.10;31.90;;;;;;4997079;28;20113;-76
2021/03/08 12:52:50;;;;;;;0.80;0.65;;;16.10;33.10;;;;;;4991900;28;20052;-73
2021/03/08 12:55:19;;;;;;;0.93;0.60;;;16.30;30.70;;;;;;4992574;28;20026;-73
2021/03/08 12:57:44;;;;;;;0.88;0.60;;;16.40;30.20;;;;;;4984172;28;20022;-73
2021/03/08 13:00:11;;;;;;;0.57;0.52;;;16.60;30.70;;;;;;4991889;28;20567;-73
2021/03/08 13:02:36;;;;;;;0.38;0.38;;;16.90;30.70;;;;;;4998238;28;20041;-72
2021/03/08 13:05:02;;;;;;;1.08;0.70;;;17.10;30.50;;;;;;5001675;28;20026;-73
2021/03/08 13:07:28;;;;;;;2.58;0.63;;;17.10;31.70;;;;;;4996866;28;20034;-72